CheckWX is a tool to help pilots better visualize weather data.  It is not intended as a substitute for an official pre-flight weather briefing.

05:04:44 UTC

PAGM METAR
Gambell Airport
Gambell, Alaska, USA
Current

32 mins ago

PAGM 100433Z AUTO 06030G35KT 3SM -SN BR OVC006 00/M01 A2875 RMK AO2 PK WND 06038/0402 UPE00SNB00 P0000 FZRANO
Observed
Dec-10 @ 04:33 UTC
Wind
  • 060° at 30 KTS
  • Gusting to 35 KTS
Visibility
3 SM
Flight Rules
IFR
Conditions
Light Snow, Mist
Cloud Levels
  • Overcast at 600' AGL
Temperature
C / 32°F
Dewpoint
-1°C / 30°F
Humidity
93%
Altimeter
28.75" Hg
Pressure
973.62 hPa
Current Rain
0.01"
Previous

56 mins ago

PAGM 100409Z AUTO 06030G38KT 1 3/4SM -SN BR BKN008 OVC012 00/M01 A2874 RMK AO2 PK WND 06038/0402 UPE00SNB00 P0000 FZRANO
Observed
Dec-10 @ 04:09 UTC
Wind
  • 060° at 30 KTS
  • Gusting to 38 KTS
Visibility
1 3/4 SM
Flight Rules
IFR
Conditions
Light Snow, Mist
Cloud Levels
  • Broken at 800' AGL
  • Overcast at 1,200' AGL
Temperature
C / 32°F
Dewpoint
-1°C / 30°F
Humidity
93%
Altimeter
28.74" Hg
Pressure
973.22 hPa
Current Rain
0.01"
Previous

1 hour ago

PAGM 100356Z AUTO 06032G38KT 4SM UP BR OVC008 00/M01 A2875 RMK AO2 PK WND 06038/0352 UPB48SNE48 CIG 007V011 SLP740 P0000 T00001006 FZRANO
Observed
Dec-10 @ 03:56 UTC
Wind
  • 060° at 32 KTS
  • Gusting to 38 KTS
Visibility
4 SM
Flight Rules
IFR
Conditions
Mist, Unknown precipitation
Cloud Levels
  • Overcast at 800' AGL
Temperature
C / 32°F
Dewpoint
-1°C / 30°F
Humidity
93%
Altimeter
28.75" Hg
Pressure
973.62 hPa
Current Rain
0.01"